Time;durP1;ratioP1;P1;durP2;ratioP2;P2;SDS_P1;SDS_P2;PMS_P1;PMS_P2;Temp;Humidity;BMP_temperature;BMP_pressure;BME280_temperature;BME280_humidity;BME280_pressure;Samples;Min_cycle;Max_cycle;Signal;HPM_P1;HPM_P2
2023/12/23 00:01:22;;;;;;;5.17;1.60;;;9.60;99.90;;;;;;5065716;28;20589;-88
2023/12/23 00:04:08;;;;;;;4.93;1.70;;;9.70;99.90;;;;;;5058123;28;20550;-88
2023/12/23 00:06:55;;;;;;;4.27;1.50;;;9.60;99.90;;;;;;5066563;28;20448;-88
2023/12/23 00:09:41;;;;;;;4.17;2.00;;;9.70;99.90;;;;;;5057887;28;20421;-87
2023/12/23 00:12:26;;;;;;;3.60;1.40;;;9.70;99.90;;;;;;5066078;28;20436;-88
2023/12/23 00:15:12;;;;;;;8.80;1.60;;;9.70;99.90;;;;;;5060070;28;20909;-88
2023/12/23 00:17:58;;;;;;;3.97;1.37;;;9.80;99.90;;;;;;5064546;28;20428;-88
2023/12/23 00:20:43;;;;;;;6.90;2.70;;;9.80;99.90;;;;;;5054791;28;20433;-88
2023/12/23 00:23:31;;;;;;;3.37;1.27;;;9.70;99.90;;;;;;5068488;28;20479;-88
2023/12/23 00:28:45;;;;;;;3.77;2.17;;;9.80;99.90;;;;;;5045806;28;20699;-72
2023/12/23 00:31:30;;;;;;;5.43;2.47;;;9.80;99.90;;;;;;5036836;28;20791;-72
2023/12/23 00:34:16;;;;;;;6.33;1.20;;;9.80;99.90;;;;;;5042166;28;20436;-72
2023/12/23 00:37:02;;;;;;;4.87;1.60;;;9.80;99.90;;;;;;5040852;28;20803;-72
2023/12/23 00:39:48;;;;;;;4.43;1.40;;;9.80;99.90;;;;;;5042663;28;20566;-72
2023/12/23 00:42:34;;;;;;;4.80;1.13;;;9.80;99.90;;;;;;5038977;28;20423;-72
2023/12/23 00:45:19;;;;;;;9.93;1.40;;;9.80;99.90;;;;;;5028472;28;20633;-72
2023/12/23 00:48:06;;;;;;;5.03;1.40;;;9.70;99.90;;;;;;5038542;28;20453;-72
2023/12/23 00:50:51;;;;;;;1.80;1.00;;;9.80;99.90;;;;;;5045260;28;20853;-72
2023/12/23 00:53:37;;;;;;;3.00;1.40;;;9.80;99.90;;;;;;5041790;28;20847;-72
2023/12/23 00:56:24;;;;;;;4.13;1.40;;;9.80;99.90;;;;;;5036028;28;20898;-72
2023/12/23 00:59:09;;;;;;;8.50;1.60;;;9.80;99.90;;;;;;5050041;28;20806;-73
2023/12/23 01:01:55;;;;;;;2.87;1.23;;;9.80;99.90;;;;;;5047754;28;20476;-72
2023/12/23 01:04:41;;;;;;;10.17;1.23;;;9.80;99.90;;;;;;5046490;28;20952;-73
2023/12/23 01:07:26;;;;;;;2.60;1.10;;;9.80;99.90;;;;;;5052804;28;20489;-72
2023/12/23 01:10:12;;;;;;;5.83;1.60;;;9.80;99.90;;;;;;5048216;28;20405;-72
2023/12/23 01:12:59;;;;;;;3.80;1.33;;;9.70;99.90;;;;;;5032724;28;20427;-72
2023/12/23 01:15:44;;;;;;;6.63;1.67;;;9.80;99.90;;;;;;5046893;28;21049;-72
2023/12/23 01:18:30;;;;;;;2.80;1.20;;;9.80;99.90;;;;;;5050532;28;20464;-72
2023/12/23 01:21:20;;;;;;;4.93;1.30;;;9.80;99.90;;;;;;5043508;28;21012;-72
2023/12/23 01:24:05;;;;;;;3.87;1.37;;;9.80;99.90;;;;;;5048552;28;20482;-72
2023/12/23 01:26:51;;;;;;;3.70;1.13;;;9.70;99.90;;;;;;5051213;28;20806;-72
2023/12/23 01:29:38;;;;;;;8.00;1.37;;;9.70;99.90;;;;;;5036950;28;20448;-72
2023/12/23 01:32:24;;;;;;;2.90;1.27;;;9.50;99.90;;;;;;5048461;28;20434;-72
2023/12/23 01:35:09;;;;;;;6.23;1.83;;;9.50;99.90;;;;;;5050819;28;20546;-72
2023/12/23 01:37:55;;;;;;;6.43;1.60;;;9.40;99.90;;;;;;5044684;28;20505;-72
2023/12/23 01:40:41;;;;;;;4.33;1.40;;;9.40;99.90;;;;;;5034604;28;20442;-73
2023/12/23 01:43:28;;;;;;;3.40;1.33;;;9.30;99.90;;;;;;5049372;28;20431;-73
2023/12/23 01:46:15;;;;;;;3.30;1.53;;;9.30;99.90;;;;;;5041464;28;20435;-72
2023/12/23 01:49:02;;;;;;;6.03;1.63;;;9.30;99.90;;;;;;5045735;28;20585;-72
2023/12/23 01:51:48;;;;;;;4.00;2.03;;;9.30;99.90;;;;;;5036099;28;20972;-72
2023/12/23 01:54:34;;;;;;;2.37;1.67;;;9.20;99.90;;;;;;5049835;28;20883;-72
2023/12/23 01:57:20;;;;;;;4.43;1.60;;;9.20;99.90;;;;;;5048656;28;20453;-72
2023/12/23 02:00:07;;;;;;;4.30;1.60;;;9.20;99.90;;;;;;5049929;28;20799;-72
2023/12/23 02:02:55;;;;;;;4.93;1.60;;;9.10;99.90;;;;;;5037746;28;20595;-72
2023/12/23 02:05:40;;;;;;;3.50;1.50;;;9.10;99.90;;;;;;5039982;28;20536;-72
2023/12/23 02:08:26;;;;;;;5.60;1.53;;;9.10;99.90;;;;;;5048865;28;20450;-73
2023/12/23 02:11:20;;;;;;;3.80;1.40;;;9.10;99.90;;;;;;5048022;28;20445;-73
2023/12/23 02:14:09;;;;;;;5.07;1.50;;;9.20;99.90;;;;;;5047113;28;20516;-72
2023/12/23 02:16:56;;;;;;;4.97;2.10;;;9.10;99.90;;;;;;5049771;28;20433;-72
2023/12/23 02:19:43;;;;;;;4.30;2.20;;;9.10;99.90;;;;;;5028697;28;20506;-73
2023/12/23 02:22:30;;;;;;;5.10;1.90;;;9.10;99.90;;;;;;5046768;28;20417;-72
2023/12/23 02:25:16;;;;;;;8.30;2.90;;;9.10;99.90;;;;;;5048724;28;20627;-72
2023/12/23 02:28:07;;;;;;;8.33;2.20;;;9.20;99.90;;;;;;5050095;28;20540;-73
2023/12/23 02:30:54;;;;;;;5.70;2.00;;;9.20;99.90;;;;;;5042129;28;20450;-72
2023/12/23 02:33:40;;;;;;;6.53;1.90;;;9.20;99.90;;;;;;5050488;28;20945;-72
2023/12/23 02:36:25;;;;;;;3.77;1.70;;;9.30;99.90;;;;;;5039362;28;20430;-72
2023/12/23 02:39:12;;;;;;;5.87;1.90;;;9.30;99.90;;;;;;5046292;28;20857;-72
2023/12/23 02:41:58;;;;;;;8.40;1.90;;;9.30;99.90;;;;;;5049532;28;20797;-72
2023/12/23 02:44:44;;;;;;;14.03;1.97;;;9.30;99.90;;;;;;5049930;28;20630;-72
2023/12/23 02:47:30;;;;;;;6.47;2.10;;;9.20;99.90;;;;;;5049535;28;20518;-72
2023/12/23 02:50:16;;;;;;;5.37;1.83;;;9.20;99.90;;;;;;5049797;28;20519;-72
2023/12/23 02:53:01;;;;;;;8.03;1.80;;;9.20;99.90;;;;;;5046141;28;20777;-73
2023/12/23 02:55:48;;;;;;;6.53;1.97;;;9.20;99.90;;;;;;5040168;28;20418;-73
2023/12/23 02:58:34;;;;;;;3.17;1.53;;;9.20;99.90;;;;;;5048811;28;20451;-72
2023/12/23 03:01:20;;;;;;;10.67;1.90;;;9.20;99.90;;;;;;5049796;28;20401;-72
2023/12/23 03:04:06;;;;;;;7.53;2.20;;;9.20;99.90;;;;;;5049975;28;20983;-72
2023/12/23 03:06:52;;;;;;;7.60;1.70;;;9.20;99.90;;;;;;5049793;28;20585;-72
2023/12/23 03:09:37;;;;;;;9.97;2.10;;;9.20;99.90;;;;;;5050159;28;20462;-71
2023/12/23 03:12:24;;;;;;;6.13;1.83;;;9.30;99.90;;;;;;5033722;28;20486;-71
2023/12/23 03:15:10;;;;;;;3.90;1.90;;;9.30;99.90;;;;;;5049249;28;20449;-71
2023/12/23 03:17:56;;;;;;;7.90;3.20;;;9.30;99.90;;;;;;5050508;28;20815;-70
2023/12/23 03:20:42;;;;;;;8.90;1.90;;;9.30;99.90;;;;;;5045853;28;20800;-71
2023/12/23 03:23:28;;;;;;;5.77;2.20;;;9.30;99.90;;;;;;5049219;28;20431;-71
2023/12/23 03:26:13;;;;;;;5.87;1.87;;;9.40;99.90;;;;;;5049785;28;20815;-72
2023/12/23 03:29:00;;;;;;;4.50;1.50;;;9.40;99.90;;;;;;5034621;28;20457;-71
2023/12/23 03:31:46;;;;;;;5.83;1.87;;;9.40;99.90;;;;;;5034251;28;20436;-72
2023/12/23 03:34:31;;;;;;;4.13;1.40;;;9.40;99.90;;;;;;5044572;28;20447;-71
2023/12/23 03:37:17;;;;;;;6.10;1.63;;;9.40;99.90;;;;;;5050231;28;20426;-73
2023/12/23 03:40:04;;;;;;;5.20;1.70;;;9.40;99.90;;;;;;5049391;28;20509;-71
2023/12/23 03:42:49;;;;;;;7.20;2.23;;;9.40;99.90;;;;;;5040205;28;20426;-72
2023/12/23 03:45:38;;;;;;;10.27;2.03;;;9.40;99.90;;;;;;5041623;28;20625;-71
2023/12/23 03:48:26;;;;;;;7.03;1.90;;;9.40;99.90;;;;;;5049579;28;20466;-72
2023/12/23 03:51:11;;;;;;;6.87;1.83;;;9.40;99.90;;;;;;5043013;28;20486;-71
2023/12/23 03:53:57;;;;;;;13.23;2.10;;;9.30;99.90;;;;;;5050235;28;20513;-71
2023/12/23 03:56:42;;;;;;;2.50;1.50;;;9.30;99.90;;;;;;5050264;28;20418;-71
2023/12/23 03:59:28;;;;;;;5.47;1.87;;;9.30;99.90;;;;;;5054245;28;20440;-73
2023/12/23 04:02:15;;;;;;;5.57;1.70;;;9.40;99.90;;;;;;5045655;28;20477;-71
2023/12/23 04:05:00;;;;;;;4.27;1.60;;;9.40;99.90;;;;;;5054134;28;20555;-72
2023/12/23 04:07:48;;;;;;;6.93;1.70;;;9.40;99.90;;;;;;5036938;28;20496;-71
2023/12/23 04:10:34;;;;;;;5.50;1.70;;;9.40;99.90;;;;;;5043012;28;20938;-71
2023/12/23 04:13:20;;;;;;;5.93;1.97;;;9.40;99.90;;;;;;5042625;28;20489;-71
2023/12/23 04:16:06;;;;;;;11.67;2.20;;;9.40;99.90;;;;;;5037787;28;20548;-71
2023/12/23 04:18:53;;;;;;;5.13;1.77;;;9.40;99.90;;;;;;5029520;28;20511;-71
2023/12/23 04:21:39;;;;;;;9.80;2.03;;;9.50;99.90;;;;;;5040865;28;20502;-71
2023/12/23 04:24:26;;;;;;;4.30;1.80;;;9.50;99.90;;;;;;5034603;28;20501;-71
2023/12/23 04:27:11;;;;;;;15.80;2.60;;;9.50;99.90;;;;;;5034513;28;20461;-72
2023/12/23 04:29:57;;;;;;;7.60;1.63;;;9.50;99.90;;;;;;5034222;28;20434;-71
2023/12/23 04:32:43;;;;;;;5.70;1.57;;;9.50;99.90;;;;;;5031617;28;20427;-72
2023/12/23 04:35:30;;;;;;;9.23;2.10;;;9.50;99.90;;;;;;5041839;28;20934;-71
2023/12/23 04:38:16;;;;;;;3.40;1.20;;;9.50;99.90;;;;;;5034817;28;20530;-71
2023/12/23 04:41:01;;;;;;;11.20;2.93;;;9.50;99.90;;;;;;5034499;28;20511;-71
2023/12/23 04:43:47;;;;;;;3.10;1.30;;;9.40;99.90;;;;;;5028634;28;20439;-71
2023/12/23 04:46:33;;;;;;;6.43;1.73;;;9.50;99.90;;;;;;5026898;28;20601;-71
2023/12/23 04:49:19;;;;;;;4.07;1.57;;;9.40;99.90;;;;;;5042659;28;20465;-70
2023/12/23 04:52:06;;;;;;;9.57;1.70;;;9.50;99.90;;;;;;5040921;28;20431;-72
2023/12/23 04:54:52;;;;;;;5.40;1.37;;;9.40;99.90;;;;;;5029857;28;20434;-70
2023/12/23 04:57:38;;;;;;;6.40;2.17;;;9.40;99.90;;;;;;5027585;28;20532;-72
2023/12/23 05:00:23;;;;;;;3.63;1.50;;;9.40;99.90;;;;;;5042590;28;20409;-71
2023/12/23 05:03:09;;;;;;;7.60;1.90;;;9.40;99.90;;;;;;5034497;28;20514;-72
2023/12/23 05:05:54;;;;;;;6.60;2.00;;;9.40;99.90;;;;;;5045031;28;20830;-71
2023/12/23 05:08:41;;;;;;;5.77;1.70;;;9.40;99.90;;;;;;5028619;28;20513;-71
2023/12/23 05:11:27;;;;;;;3.90;1.63;;;9.50;99.90;;;;;;5034766;28;20402;-71
2023/12/23 05:14:13;;;;;;;4.67;1.90;;;9.50;99.90;;;;;;5050303;28;20431;-72
2023/12/23 05:16:58;;;;;;;5.13;1.67;;;9.40;99.90;;;;;;5034476;28;20429;-71
2023/12/23 05:19:47;;;;;;;7.27;1.80;;;9.40;99.90;;;;;;5031925;28;20791;-71
2023/12/23 05:22:32;;;;;;;5.57;1.73;;;9.30;99.90;;;;;;5040945;28;20946;-71
2023/12/23 05:25:19;;;;;;;6.93;1.57;;;9.40;99.90;;;;;;5034903;28;21012;-72
2023/12/23 05:28:05;;;;;;;6.30;1.63;;;9.30;99.90;;;;;;5034005;28;20482;-71
2023/12/23 05:30:51;;;;;;;7.03;1.77;;;9.30;99.90;;;;;;5034551;28;20430;-71
2023/12/23 05:33:36;;;;;;;2.80;1.43;;;9.30;99.90;;;;;;5034302;28;20441;-71
2023/12/23 05:36:22;;;;;;;5.50;1.53;;;9.20;99.90;;;;;;5042268;28;20458;-73
2023/12/23 05:39:10;;;;;;;4.00;2.00;;;9.30;99.90;;;;;;5034708;28;20436;-73
2023/12/23 05:41:56;;;;;;;5.40;1.80;;;9.30;99.90;;;;;;5038990;28;20908;-71
2023/12/23 05:44:42;;;;;;;4.37;1.87;;;9.20;99.90;;;;;;5033318;28;20439;-72
2023/12/23 05:47:29;;;;;;;6.90;2.00;;;9.30;99.90;;;;;;5037200;28;20814;-71
2023/12/23 05:50:14;;;;;;;9.37;1.83;;;9.30;99.90;;;;;;5043342;28;20426;-71
2023/12/23 05:53:00;;;;;;;6.67;2.53;;;9.30;99.90;;;;;;5030089;28;20428;-71
2023/12/23 05:55:46;;;;;;;3.20;1.77;;;9.20;99.90;;;;;;5028404;28;20423;-71
2023/12/23 05:58:33;;;;;;;3.73;1.53;;;9.30;99.90;;;;;;5041546;28;20447;-71
2023/12/23 06:01:19;;;;;;;4.57;1.87;;;9.30;99.90;;;;;;5033732;28;20435;-72
2023/12/23 06:04:05;;;;;;;4.27;2.03;;;9.30;99.90;;;;;;5034173;28;20510;-72
2023/12/23 06:06:50;;;;;;;8.80;2.07;;;9.30;99.90;;;;;;5029051;28;20482;-71
2023/12/23 06:09:36;;;;;;;4.70;1.90;;;9.40;99.90;;;;;;5038172;28;20443;-70
2023/12/23 06:12:22;;;;;;;8.10;2.00;;;9.40;99.90;;;;;;5041826;28;20468;-71
2023/12/23 06:15:10;;;;;;;4.70;1.53;;;9.50;99.90;;;;;;5034156;28;20451;-71
2023/12/23 06:17:56;;;;;;;6.53;2.00;;;9.50;99.90;;;;;;5034645;28;20782;-72
2023/12/23 06:20:41;;;;;;;4.00;2.00;;;9.50;99.90;;;;;;5037973;28;20816;-71
2023/12/23 06:23:27;;;;;;;6.10;2.27;;;9.50;99.90;;;;;;5038917;28;20500;-73
2023/12/23 06:26:13;;;;;;;7.00;2.10;;;9.50;99.90;;;;;;5034956;28;20546;-73
2023/12/23 06:28:58;;;;;;;6.10;1.90;;;9.50;99.90;;;;;;5038105;28;20601;-71
2023/12/23 06:31:46;;;;;;;5.20;2.30;;;9.50;99.90;;;;;;5045256;28;20401;-71
2023/12/23 06:34:31;;;;;;;6.67;2.40;;;9.50;99.90;;;;;;5049331;28;20467;-70
2023/12/23 06:37:17;;;;;;;11.40;1.80;;;9.50;99.90;;;;;;5043804;28;20816;-74
2023/12/23 06:40:03;;;;;;;7.43;2.13;;;9.50;99.90;;;;;;5041072;28;20807;-74
2023/12/23 06:42:48;;;;;;;4.47;1.73;;;9.50;99.90;;;;;;5028607;28;20431;-74
2023/12/23 06:45:34;;;;;;;13.37;2.80;;;9.50;99.90;;;;;;5043594;28;20480;-74
2023/12/23 06:48:21;;;;;;;5.20;2.03;;;9.60;99.90;;;;;;5043664;28;20842;-73
2023/12/23 06:51:07;;;;;;;3.87;2.47;;;9.60;99.90;;;;;;5043207;28;20508;-74
2023/12/23 06:53:53;;;;;;;15.33;2.47;;;9.60;99.90;;;;;;5034094;28;20509;-74
2023/12/23 06:56:38;;;;;;;7.73;2.60;;;9.60;99.90;;;;;;5040953;28;20510;-74
2023/12/23 06:59:24;;;;;;;5.73;2.37;;;9.60;99.90;;;;;;5041588;28;20432;-74
2023/12/23 07:02:11;;;;;;;5.73;2.43;;;9.60;99.90;;;;;;5038551;28;20427;-72
2023/12/23 07:04:58;;;;;;;5.80;2.53;;;9.60;99.90;;;;;;5029776;28;20431;-73
2023/12/23 07:07:43;;;;;;;7.10;2.10;;;9.70;99.90;;;;;;5039630;28;20574;-74
2023/12/23 07:10:29;;;;;;;5.87;2.20;;;9.70;99.90;;;;;;5034132;28;20428;-74
2023/12/23 07:13:15;;;;;;;4.03;2.00;;;9.70;99.90;;;;;;5035472;28;20431;-74
2023/12/23 07:16:00;;;;;;;6.83;2.70;;;9.60;99.90;;;;;;5038435;28;20558;-73
2023/12/23 07:18:46;;;;;;;7.33;2.70;;;9.60;99.90;;;;;;5039213;28;20446;-74
2023/12/23 07:21:33;;;;;;;4.30;2.27;;;9.60;99.90;;;;;;5037385;28;20792;-74
2023/12/23 07:24:18;;;;;;;9.00;3.77;;;9.70;99.90;;;;;;5037485;28;20447;-74
2023/12/23 07:27:04;;;;;;;9.70;5.77;;;9.60;99.90;;;;;;5035538;28;20491;-73
2023/12/23 07:29:50;;;;;;;13.10;4.70;;;9.60;99.90;;;;;;5033571;28;20542;-73
2023/12/23 07:32:35;;;;;;;7.53;2.57;;;9.70;99.90;;;;;;5034365;28;20811;-74
2023/12/23 07:35:21;;;;;;;14.80;3.57;;;9.70;99.90;;;;;;5036195;28;20430;-74
2023/12/23 07:38:09;;;;;;;5.30;3.40;;;9.80;99.90;;;;;;5041181;28;20913;-74
2023/12/23 07:40:55;;;;;;;7.17;2.00;;;9.80;99.90;;;;;;5044313;28;20504;-74
2023/12/23 07:43:40;;;;;;;9.80;2.87;;;9.80;99.90;;;;;;5032892;28;20420;-74
2023/12/23 07:46:26;;;;;;;6.87;2.67;;;9.80;99.90;;;;;;5048812;28;20555;-74
2023/12/23 07:49:13;;;;;;;11.07;2.53;;;9.70;99.90;;;;;;5039238;28;20434;-74
2023/12/23 07:51:58;;;;;;;6.13;2.10;;;9.80;99.90;;;;;;5041292;28;20945;-74
2023/12/23 07:54:45;;;;;;;12.77;4.53;;;9.80;99.90;;;;;;5034852;28;20428;-74
2023/12/23 07:57:31;;;;;;;7.50;2.97;;;9.70;99.90;;;;;;5036048;28;20487;-74
2023/12/23 08:00:17;;;;;;;4.00;2.33;;;9.70;99.90;;;;;;5036137;28;20518;-74
2023/12/23 08:03:03;;;;;;;9.93;3.80;;;9.70;99.90;;;;;;5033264;28;20792;-74
2023/12/23 08:05:49;;;;;;;12.30;4.20;;;9.70;99.90;;;;;;5040664;28;20471;-74
2023/12/23 08:08:34;;;;;;;5.50;2.20;;;9.70;99.90;;;;;;5042356;28;20492;-74
2023/12/23 08:11:22;;;;;;;4.97;2.10;;;9.70;99.90;;;;;;5037527;28;20427;-73
2023/12/23 08:14:08;;;;;;;4.43;1.90;;;9.70;99.90;;;;;;5035004;28;20493;-73
2023/12/23 08:16:54;;;;;;;6.77;2.17;;;9.70;99.90;;;;;;5037713;28;20431;-74
2023/12/23 08:19:40;;;;;;;3.33;1.70;;;9.60;99.90;;;;;;5039783;28;21413;-74
2023/12/23 08:22:25;;;;;;;11.90;2.73;;;9.60;99.90;;;;;;5036361;28;20954;-74
2023/12/23 08:25:11;;;;;;;4.30;1.60;;;9.60;99.90;;;;;;5037960;28;20414;-74
2023/12/23 08:27:58;;;;;;;3.97;1.87;;;9.60;99.90;;;;;;5034883;28;20458;-74
2023/12/23 08:30:43;;;;;;;3.80;2.20;;;9.50;99.90;;;;;;5034770;28;20433;-74
2023/12/23 08:33:29;;;;;;;8.97;1.90;;;9.50;99.90;;;;;;5045059;28;20432;-74
2023/12/23 08:36:15;;;;;;;3.77;1.77;;;9.60;99.90;;;;;;5038144;28;20502;-74
2023/12/23 08:39:01;;;;;;;6.20;2.00;;;9.60;99.90;;;;;;5036293;28;20445;-74
2023/12/23 08:41:47;;;;;;;2.90;1.17;;;9.60;99.90;;;;;;5028642;28;20497;-74
2023/12/23 08:44:33;;;;;;;4.63;1.77;;;9.60;99.90;;;;;;5036485;28;21047;-74
2023/12/23 08:47:19;;;;;;;6.33;1.90;;;9.50;99.90;;;;;;5038770;28;20602;-74
2023/12/23 08:50:05;;;;;;;8.40;1.80;;;9.50;99.90;;;;;;5034656;28;20829;-74
2023/12/23 08:52:52;;;;;;;4.13;1.50;;;9.60;99.90;;;;;;5036880;28;20426;-74
2023/12/23 08:55:37;;;;;;;5.17;1.20;;;9.60;99.90;;;;;;5051262;28;20553;-74
2023/12/23 08:58:25;;;;;;;2.40;1.07;;;9.60;99.90;;;;;;5046042;28;20819;-73
2023/12/23 09:01:12;;;;;;;1.77;1.10;;;9.60;99.90;;;;;;5044639;28;20506;-74
2023/12/23 09:03:57;;;;;;;1.70;0.90;;;9.60;99.90;;;;;;5037061;28;20430;-74
2023/12/23 09:06:43;;;;;;;1.40;0.83;;;9.70;99.90;;;;;;5041770;28;20847;-74
2023/12/23 09:09:28;;;;;;;2.63;0.80;;;9.60;99.90;;;;;;5044525;28;20434;-74
2023/12/23 09:12:14;;;;;;;2.20;1.13;;;9.60;99.90;;;;;;5047147;28;20637;-74
2023/12/23 09:15:00;;;;;;;4.27;1.33;;;9.60;99.90;;;;;;5039295;28;20982;-74
2023/12/23 09:17:47;;;;;;;1.90;0.80;;;9.70;99.90;;;;;;5044152;28;20447;-73
2023/12/23 09:20:32;;;;;;;3.63;1.30;;;9.70;99.90;;;;;;5041480;28;20447;-74
2023/12/23 09:23:18;;;;;;;1.60;1.00;;;9.70;99.90;;;;;;5039873;28;20950;-74
2023/12/23 09:26:03;;;;;;;3.53;1.07;;;9.80;99.90;;;;;;5036384;28;20422;-72
2023/12/23 09:28:49;;;;;;;2.70;1.13;;;9.70;99.90;;;;;;5041860;28;21075;-74
2023/12/23 09:31:35;;;;;;;3.23;0.90;;;9.60;99.90;;;;;;5045420;28;20441;-73
2023/12/23 09:34:21;;;;;;;3.07;1.10;;;9.70;99.90;;;;;;5040171;28;20902;-74
2023/12/23 09:37:07;;;;;;;2.40;1.00;;;9.80;99.90;;;;;;5047236;28;20434;-73
2023/12/23 09:39:53;;;;;;;3.20;0.90;;;9.80;99.90;;;;;;5046903;28;20427;-74
2023/12/23 09:42:38;;;;;;;1.33;0.70;;;9.70;99.90;;;;;;5039543;28;20483;-74
2023/12/23 09:45:26;;;;;;;1.50;0.70;;;9.80;99.90;;;;;;5041144;28;21089;-73
2023/12/23 09:48:12;;;;;;;1.90;0.73;;;9.70;99.90;;;;;;5042025;28;20864;-72
2023/12/23 09:50:59;;;;;;;2.10;1.00;;;9.80;99.90;;;;;;5032315;28;20502;-74
2023/12/23 09:53:47;;;;;;;3.30;0.90;;;9.70;99.90;;;;;;5038147;28;20446;-74
2023/12/23 09:56:34;;;;;;;1.60;0.80;;;9.80;99.90;;;;;;5039028;28;20526;-73
2023/12/23 09:59:20;;;;;;;1.70;1.07;;;9.70;99.90;;;;;;5035749;28;20563;-74
2023/12/23 10:02:06;;;;;;;1.73;0.80;;;9.70;99.90;;;;;;5044132;28;20954;-74
2023/12/23 10:04:51;;;;;;;2.10;0.90;;;9.70;99.90;;;;;;5036697;28;20427;-74
2023/12/23 10:07:38;;;;;;;1.70;0.60;;;9.70;99.90;;;;;;5044947;28;20489;-74
2023/12/23 10:10:24;;;;;;;1.60;0.70;;;9.70;99.90;;;;;;5040473;28;20440;-74
2023/12/23 10:13:11;;;;;;;1.60;0.77;;;9.70;99.90;;;;;;5041458;28;20473;-74
2023/12/23 10:15:57;;;;;;;1.20;0.70;;;9.70;99.90;;;;;;5030608;28;20431;-72
2023/12/23 10:18:42;;;;;;;1.50;0.70;;;9.80;99.90;;;;;;5044145;28;20446;-74
2023/12/23 10:21:28;;;;;;;2.63;1.00;;;9.80;99.90;;;;;;5044254;28;20434;-74
2023/12/23 10:24:15;;;;;;;1.20;0.60;;;9.80;99.90;;;;;;5039376;28;20443;-75
2023/12/23 10:27:01;;;;;;;1.50;0.73;;;9.80;99.90;;;;;;5034060;28;20438;-71
2023/12/23 10:29:51;;;;;;;1.33;0.70;;;9.80;99.90;;;;;;5038270;28;20508;-74
2023/12/23 10:32:38;;;;;;;1.90;0.73;;;9.80;99.90;;;;;;5032653;28;20444;-72
2023/12/23 10:35:26;;;;;;;1.30;0.60;;;9.80;99.90;;;;;;5041624;28;20446;-72
2023/12/23 10:38:16;;;;;;;4.23;1.73;;;9.80;99.90;;;;;;5041495;28;20854;-74
2023/12/23 10:41:11;;;;;;;4.00;2.30;;;9.90;99.90;;;;;;5034288;28;20441;-72
2023/12/23 10:43:58;;;;;;;6.80;3.43;;;9.90;99.90;;;;;;5033826;28;20448;-74
2023/12/23 10:46:44;;;;;;;5.13;2.90;;;9.90;99.90;;;;;;5044663;28;20609;-71
2023/12/23 10:49:30;;;;;;;3.90;1.83;;;9.90;99.90;;;;;;5034773;28;20479;-69
2023/12/23 10:52:16;;;;;;;2.10;0.90;;;9.90;99.90;;;;;;5037354;28;20428;-73
2023/12/23 10:55:03;;;;;;;3.20;1.23;;;9.90;99.90;;;;;;5039102;28;20430;-73
2023/12/23 10:57:52;;;;;;;3.77;1.70;;;10.00;99.90;;;;;;5038482;28;20455;-74
2023/12/23 11:00:38;;;;;;;8.23;2.63;;;10.00;99.90;;;;;;5046255;28;20475;-73
2023/12/23 11:03:26;;;;;;;8.07;4.13;;;9.90;99.90;;;;;;5045049;28;20445;-75
2023/12/23 11:06:13;;;;;;;2.30;1.00;;;10.00;99.90;;;;;;5034862;28;20787;-75
2023/12/23 11:09:01;;;;;;;2.03;1.03;;;9.90;99.90;;;;;;5032676;28;20423;-74
2023/12/23 11:11:47;;;;;;;4.03;1.87;;;9.90;99.90;;;;;;5041082;28;20468;-73
2023/12/23 11:14:34;;;;;;;7.50;2.70;;;9.80;99.90;;;;;;5035307;28;20517;-74
2023/12/23 11:17:24;;;;;;;3.87;2.10;;;9.70;99.90;;;;;;5050432;28;20450;-73
2023/12/23 11:20:50;;;;;;;1.80;1.00;;;9.60;99.90;;;;;;5039531;28;20962;-72
2023/12/23 11:23:35;;;;;;;3.43;1.30;;;9.60;99.90;;;;;;5033889;28;20463;-74
2023/12/23 11:26:41;;;;;;;1.50;0.90;;;9.60;99.90;;;;;;5044793;28;20511;-73
2023/12/23 11:29:27;;;;;;;2.30;1.10;;;9.60;99.90;;;;;;5045311;28;20409;-74
2023/12/23 11:32:14;;;;;;;2.90;1.57;;;9.50;99.90;;;;;;5036602;28;20455;-72
2023/12/23 11:35:00;;;;;;;3.63;1.87;;;9.50;99.90;;;;;;5037961;28;20556;-74
2023/12/23 11:37:51;;;;;;;1.90;1.10;;;9.50;99.90;;;;;;5039255;28;20442;-75
2023/12/23 11:40:37;;;;;;;3.67;1.60;;;9.50;99.90;;;;;;5030680;28;20470;-72
2023/12/23 11:43:23;;;;;;;1.80;0.90;;;9.50;99.90;;;;;;5040386;28;20503;-74
2023/12/23 11:46:09;;;;;;;3.60;1.00;;;9.50;99.90;;;;;;5036090;28;20421;-74
2023/12/23 11:48:59;;;;;;;4.90;1.00;;;9.60;99.90;;;;;;5042562;28;20479;-75
2023/12/23 11:51:46;;;;;;;2.10;0.97;;;9.60;99.90;;;;;;5043932;28;20427;-73
2023/12/23 11:54:31;;;;;;;1.70;0.80;;;9.70;99.90;;;;;;5042574;28;20430;-74
2023/12/23 11:57:17;;;;;;;1.80;0.93;;;9.70;99.90;;;;;;5038695;28;20583;-73
2023/12/23 12:00:04;;;;;;;3.30;0.97;;;9.60;99.90;;;;;;5035293;28;21033;-74
2023/12/23 12:02:50;;;;;;;3.00;0.90;;;9.60;99.90;;;;;;5034454;28;20474;-74
2023/12/23 12:05:37;;;;;;;1.90;1.00;;;9.60;99.90;;;;;;5042192;28;20880;-74
2023/12/23 12:08:23;;;;;;;1.50;0.90;;;9.70;99.90;;;;;;5044262;28;20501;-74
2023/12/23 12:11:09;;;;;;;2.20;1.00;;;9.70;99.90;;;;;;5035694;28;20421;-74
2023/12/23 12:13:57;;;;;;;5.30;0.80;;;9.70;99.90;;;;;;5037683;28;20430;-74
2023/12/23 12:16:42;;;;;;;2.40;1.13;;;9.70;99.90;;;;;;5034703;28;20427;-74
2023/12/23 12:19:28;;;;;;;2.77;0.80;;;9.60;99.90;;;;;;5042017;28;20960;-74
2023/12/23 12:22:15;;;;;;;1.90;1.00;;;9.60;99.90;;;;;;5042929;28;20428;-72
2023/12/23 12:25:01;;;;;;;3.60;1.60;;;9.60;99.90;;;;;;5042427;28;20428;-74
2023/12/23 12:27:46;;;;;;;2.27;1.07;;;9.60;99.90;;;;;;5041817;28;20459;-74
2023/12/23 12:30:31;;;;;;;2.10;1.03;;;9.70;99.90;;;;;;5042004;28;20425;-72
2023/12/23 12:33:17;;;;;;;2.00;1.00;;;9.70;99.90;;;;;;5038548;28;20458;-73
2023/12/23 12:36:03;;;;;;;9.93;1.10;;;9.70;99.90;;;;;;5042353;28;20481;-74
2023/12/23 12:38:50;;;;;;;1.63;0.70;;;9.70;99.90;;;;;;5042715;28;20953;-74
2023/12/23 12:41:37;;;;;;;1.97;0.90;;;9.80;99.90;;;;;;5045654;28;20441;-73
2023/12/23 12:44:23;;;;;;;2.43;1.00;;;9.80;99.90;;;;;;5049082;28;20450;-74
2023/12/23 12:47:09;;;;;;;2.53;1.00;;;9.80;99.90;;;;;;5049231;28;20451;-74
2023/12/23 12:50:00;;;;;;;1.60;0.70;;;9.80;99.90;;;;;;5038889;28;20432;-74
2023/12/23 12:52:46;;;;;;;1.93;0.80;;;9.80;99.90;;;;;;5039662;28;20579;-74
2023/12/23 12:55:32;;;;;;;3.80;0.73;;;9.90;99.90;;;;;;5045302;28;20955;-74
2023/12/23 12:58:18;;;;;;;4.77;1.00;;;9.90;99.90;;;;;;5045945;28;20978;-74
2023/12/23 13:01:04;;;;;;;2.27;1.17;;;9.90;99.90;;;;;;5038619;28;20942;-74
2023/12/23 13:03:49;;;;;;;1.77;0.80;;;9.90;99.90;;;;;;5040364;28;20927;-74
2023/12/23 13:06:35;;;;;;;1.50;1.00;;;9.90;99.90;;;;;;5033899;28;20425;-74
2023/12/23 13:09:21;;;;;;;3.03;0.70;;;9.80;99.90;;;;;;5045512;28;20399;-74
2023/12/23 13:12:11;;;;;;;3.37;0.80;;;9.80;99.90;;;;;;5039255;28;20503;-71
2023/12/23 13:14:57;;;;;;;1.77;0.87;;;9.90;99.90;;;;;;5042779;28;20435;-73
2023/12/23 13:17:43;;;;;;;3.00;1.30;;;9.90;99.90;;;;;;5042166;28;20430;-73
2023/12/23 13:20:28;;;;;;;1.60;1.03;;;9.90;99.90;;;;;;5042257;28;20847;-74
2023/12/23 13:23:14;;;;;;;2.03;1.27;;;9.80;99.90;;;;;;5036725;28;20432;-74
2023/12/23 13:26:00;;;;;;;2.03;1.40;;;9.90;99.90;;;;;;5048730;28;20425;-74
2023/12/23 13:28:47;;;;;;;4.23;0.90;;;9.80;99.90;;;;;;5039257;28;20459;-74
2023/12/23 13:31:32;;;;;;;3.67;1.20;;;9.80;99.90;;;;;;5044770;28;20501;-74
2023/12/23 13:34:18;;;;;;;3.00;1.00;;;9.80;99.90;;;;;;5042541;28;20405;-74
2023/12/23 13:37:04;;;;;;;2.13;0.90;;;9.80;99.90;;;;;;5038276;28;20557;-74
2023/12/23 13:39:50;;;;;;;1.60;0.80;;;9.80;99.90;;;;;;5035322;28;20440;-74
2023/12/23 13:42:36;;;;;;;3.33;1.00;;;9.80;99.90;;;;;;5045108;28;20911;-74
2023/12/23 13:45:23;;;;;;;1.33;0.70;;;9.80;99.90;;;;;;5047375;28;20428;-74
2023/12/23 13:48:09;;;;;;;1.50;0.80;;;9.80;99.90;;;;;;5039413;28;20463;-74
2023/12/23 13:50:55;;;;;;;1.97;0.90;;;9.90;99.90;;;;;;5040042;28;20768;-74
2023/12/23 13:53:42;;;;;;;1.30;0.70;;;9.90;99.90;;;;;;5041322;28;20894;-74
2023/12/23 13:56:28;;;;;;;1.60;1.03;;;10.00;99.90;;;;;;5038081;28;20439;-73
2023/12/23 13:59:14;;;;;;;2.90;0.90;;;10.00;99.90;;;;;;5041106;28;20819;-72
2023/12/23 14:02:01;;;;;;;2.80;1.00;;;10.00;99.90;;;;;;5042583;28;20426;-74
2023/12/23 14:04:46;;;;;;;4.53;1.20;;;10.10;99.90;;;;;;5044357;28;20433;-74
2023/12/23 14:07:32;;;;;;;2.47;1.00;;;10.00;99.90;;;;;;5043891;28;20812;-73
2023/12/23 14:10:18;;;;;;;2.00;1.00;;;10.00;99.90;;;;;;5043573;28;20834;-73
2023/12/23 14:13:03;;;;;;;2.23;1.00;;;10.10;99.90;;;;;;5044640;28;20405;-74
2023/12/23 14:15:49;;;;;;;3.20;1.03;;;10.10;99.90;;;;;;5043095;28;20422;-74
2023/12/23 14:18:36;;;;;;;3.67;1.17;;;10.10;99.90;;;;;;5043214;28;20446;-73
2023/12/23 14:21:22;;;;;;;3.47;1.00;;;10.10;99.90;;;;;;5039543;28;20957;-74
2023/12/23 14:24:08;;;;;;;1.90;1.10;;;10.10;99.90;;;;;;5025629;28;20434;-74
2023/12/23 14:26:53;;;;;;;3.40;0.90;;;10.10;99.90;;;;;;5043263;28;20451;-75
2023/12/23 14:29:41;;;;;;;4.80;1.40;;;10.10;99.90;;;;;;5029996;28;20586;-75
2023/12/23 14:32:26;;;;;;;2.00;0.87;;;10.10;99.90;;;;;;5030198;28;20431;-72
2023/12/23 14:35:13;;;;;;;7.30;1.40;;;10.10;99.90;;;;;;5040284;28;20426;-74
2023/12/23 14:37:59;;;;;;;1.63;1.00;;;10.10;99.90;;;;;;5040640;28;20475;-72